Time;durP1;ratioP1;P1;durP2;ratioP2;P2;SDS_P1;SDS_P2;PMS_P1;PMS_P2;Temp;Humidity;BMP_temperature;BMP_pressure;BME280_temperature;BME280_humidity;BME280_pressure;Samples;Min_cycle;Max_cycle;Signal;HPM_P1;HPM_P2
2021/07/19 00:00:17;;;;;;;5.05;2.92;;;18.80;99.90;;;;;;5052041;28;20037;-63
2021/07/19 00:02:44;;;;;;;8.82;2.92;;;18.80;99.90;;;;;;5053107;28;20039;-63
2021/07/19 00:05:11;;;;;;;4.28;2.75;;;18.70;99.90;;;;;;5051932;28;20171;-63
2021/07/19 00:07:37;;;;;;;4.10;2.80;;;18.70;99.90;;;;;;5051604;28;20048;-63
2021/07/19 00:10:07;;;;;;;4.35;2.85;;;18.70;99.90;;;;;;5051704;28;20373;-64
2021/07/19 00:12:32;;;;;;;4.45;2.63;;;18.70;99.90;;;;;;5052141;28;20025;-63
2021/07/19 00:14:59;;;;;;;2.90;2.50;;;18.70;99.90;;;;;;5050690;28;20406;-63
2021/07/19 00:17:24;;;;;;;4.60;3.15;;;18.70;99.90;;;;;;5052166;28;20041;-63
2021/07/19 00:19:50;;;;;;;7.30;3.03;;;18.70;99.90;;;;;;5051527;28;20048;-64
2021/07/19 00:22:18;;;;;;;4.20;2.92;;;18.60;99.90;;;;;;5052021;28;20112;-63
2021/07/19 00:24:44;;;;;;;3.20;2.67;;;18.50;99.90;;;;;;5051685;28;20032;-63
2021/07/19 00:27:10;;;;;;;6.63;2.80;;;18.50;99.90;;;;;;5051124;28;20021;-63
2021/07/19 00:29:35;;;;;;;3.92;2.50;;;18.50;99.90;;;;;;5051587;28;20037;-63
2021/07/19 00:32:01;;;;;;;3.38;3.05;;;18.50;99.90;;;;;;5051162;28;20107;-63
2021/07/19 00:34:27;;;;;;;5.85;3.08;;;18.40;99.90;;;;;;5051303;28;20082;-63
2021/07/19 00:36:54;;;;;;;5.57;3.08;;;18.40;99.90;;;;;;5051130;28;20037;-64
2021/07/19 00:39:20;;;;;;;4.15;2.60;;;18.40;99.90;;;;;;5051506;28;20116;-63
2021/07/19 00:41:46;;;;;;;4.90;2.95;;;18.40;99.90;;;;;;5051268;28;20112;-63
2021/07/19 00:44:13;;;;;;;6.90;3.40;;;18.30;99.90;;;;;;5050975;28;20095;-63
2021/07/19 00:46:39;;;;;;;3.35;2.90;;;18.30;99.90;;;;;;5051389;28;20470;-63
2021/07/19 00:49:06;;;;;;;4.32;3.33;;;18.20;99.90;;;;;;5043063;28;20080;-63
2021/07/19 00:51:32;;;;;;;5.25;3.13;;;18.20;99.90;;;;;;5051748;28;20028;-63
2021/07/19 00:53:58;;;;;;;4.90;2.88;;;18.20;99.90;;;;;;5050302;28;20036;-63
2021/07/19 00:56:25;;;;;;;4.25;3.08;;;18.20;99.90;;;;;;5051183;28;20548;-63
2021/07/19 00:58:51;;;;;;;3.15;2.85;;;18.10;99.90;;;;;;5050643;28;20056;-63
2021/07/19 01:01:18;;;;;;;4.35;2.85;;;18.10;99.90;;;;;;5051399;28;20033;-63
2021/07/19 01:03:45;;;;;;;6.40;3.30;;;18.00;99.90;;;;;;5051005;28;20493;-63
2021/07/19 01:06:11;;;;;;;6.60;3.40;;;18.00;99.90;;;;;;5049811;28;20132;-63
2021/07/19 01:08:38;;;;;;;5.75;2.90;;;18.00;99.90;;;;;;5051089;28;20478;-63
2021/07/19 01:11:04;;;;;;;5.05;3.30;;;17.90;99.90;;;;;;5050294;28;20021;-63
2021/07/19 01:13:30;;;;;;;3.45;3.10;;;17.90;99.90;;;;;;5051764;28;20096;-65
2021/07/19 01:15:55;;;;;;;3.63;2.97;;;17.80;99.90;;;;;;5050154;28;20090;-63
2021/07/19 01:18:22;;;;;;;4.07;3.05;;;17.80;99.90;;;;;;5051248;28;20033;-63
2021/07/19 01:20:57;;;;;;;3.47;2.83;;;17.80;99.90;;;;;;5051259;28;20029;-63
2021/07/19 01:23:50;;;;;;;6.63;3.20;;;17.80;99.90;;;;;;5051328;28;20132;-63
2021/07/19 01:26:57;;;;;;;3.75;3.05;;;17.80;99.90;;;;;;5041824;28;20033;-64
2021/07/19 01:29:23;;;;;;;5.13;3.13;;;17.80;99.90;;;;;;5049728;28;20041;-63
2021/07/19 01:31:52;;;;;;;5.50;3.10;;;17.80;99.90;;;;;;5050516;28;20032;-63
2021/07/19 01:34:22;;;;;;;3.55;3.25;;;17.80;99.90;;;;;;5050260;28;20523;-63
2021/07/19 01:36:54;;;;;;;5.05;3.00;;;17.70;99.90;;;;;;5051222;28;20082;-63
2021/07/19 01:39:20;;;;;;;5.35;3.25;;;17.70;99.90;;;;;;5050848;28;20029;-63
2021/07/19 01:41:47;;;;;;;5.30;3.40;;;17.70;99.90;;;;;;5050677;28;20083;-63
2021/07/19 01:44:15;;;;;;;3.65;3.35;;;17.70;99.90;;;;;;5049434;28;20085;-63
2021/07/19 01:46:42;;;;;;;4.80;3.17;;;17.70;99.90;;;;;;5045136;28;20029;-63
2021/07/19 01:49:11;;;;;;;7.28;3.15;;;17.70;99.90;;;;;;5049762;28;20065;-63
2021/07/19 01:51:37;;;;;;;4.78;3.33;;;17.60;99.90;;;;;;5050282;28;20044;-63
2021/07/19 01:54:04;;;;;;;5.07;3.42;;;17.60;99.90;;;;;;5049067;28;20033;-63
2021/07/19 01:56:30;;;;;;;4.07;3.17;;;17.60;99.90;;;;;;5050812;28;20447;-63
2021/07/19 01:58:58;;;;;;;3.65;2.85;;;17.50;99.90;;;;;;5049983;28;20072;-64
2021/07/19 02:01:25;;;;;;;4.43;3.10;;;17.50;99.90;;;;;;5050670;28;20033;-64
2021/07/19 02:03:51;;;;;;;3.45;2.63;;;17.50;99.90;;;;;;5052712;28;20029;-63
2021/07/19 02:06:17;;;;;;;4.72;3.40;;;17.40;99.90;;;;;;5054471;28;20532;-63
2021/07/19 02:08:45;;;;;;;3.35;3.05;;;17.40;99.90;;;;;;5054502;28;20497;-63
2021/07/19 02:11:11;;;;;;;4.85;2.90;;;17.30;99.90;;;;;;5053917;28;20037;-63
2021/07/19 02:13:41;;;;;;;4.18;3.40;;;17.30;99.90;;;;;;5054081;28;20470;-63
2021/07/19 02:16:08;;;;;;;3.55;3.22;;;17.30;99.90;;;;;;5053402;28;20027;-63
2021/07/19 02:18:38;;;;;;;4.22;3.33;;;17.20;99.90;;;;;;5054324;28;20029;-63
2021/07/19 02:21:05;;;;;;;3.50;3.17;;;17.20;99.90;;;;;;5053522;28;20040;-63
2021/07/19 02:23:33;;;;;;;4.22;3.47;;;17.20;99.90;;;;;;5054293;28;20458;-63
2021/07/19 02:26:00;;;;;;;5.25;3.50;;;17.20;99.90;;;;;;5053836;28;20104;-64
2021/07/19 02:28:26;;;;;;;5.75;3.00;;;17.20;99.90;;;;;;5053622;28;20041;-63
2021/07/19 02:30:53;;;;;;;5.00;3.28;;;17.10;99.90;;;;;;5054461;28;20047;-64
2021/07/19 02:33:20;;;;;;;4.38;3.10;;;17.20;99.90;;;;;;5053508;28;20120;-63
2021/07/19 02:35:50;;;;;;;6.38;3.38;;;17.10;99.90;;;;;;5054391;28;20043;-63
2021/07/19 02:38:16;;;;;;;3.70;3.40;;;17.10;99.90;;;;;;5053220;28;20044;-63
2021/07/19 02:40:45;;;;;;;6.03;4.13;;;17.10;99.90;;;;;;5052609;28;20355;-63
2021/07/19 02:43:12;;;;;;;4.75;3.25;;;17.10;99.90;;;;;;5053299;28;20048;-63
2021/07/19 02:45:42;;;;;;;7.97;3.75;;;17.10;99.90;;;;;;5053411;28;20028;-63
2021/07/19 02:48:12;;;;;;;3.83;3.40;;;17.10;99.90;;;;;;5053509;28;20029;-63
2021/07/19 02:50:38;;;;;;;5.38;3.65;;;17.10;99.90;;;;;;5052988;28;20095;-63
2021/07/19 02:53:11;;;;;;;4.43;3.38;;;17.00;99.90;;;;;;5053245;28;20029;-63
2021/07/19 02:55:40;;;;;;;3.88;3.55;;;17.00;99.90;;;;;;5053744;28;20566;-63
2021/07/19 02:58:07;;;;;;;4.50;3.40;;;17.00;99.90;;;;;;5053193;28;20109;-63
2021/07/19 03:00:35;;;;;;;3.88;3.38;;;17.00;99.90;;;;;;5053470;28;20486;-63
2021/07/19 03:03:11;;;;;;;3.88;3.45;;;17.00;99.90;;;;;;5052515;28;20470;-63
2021/07/19 03:05:39;;;;;;;3.88;3.35;;;17.00;99.90;;;;;;5053256;28;20164;-63
2021/07/19 03:08:07;;;;;;;4.47;3.30;;;16.90;99.90;;;;;;5052927;28;20730;-63
2021/07/19 03:10:35;;;;;;;4.15;3.60;;;16.90;99.90;;;;;;5053538;28;20025;-63
2021/07/19 03:13:06;;;;;;;5.53;3.65;;;16.80;99.90;;;;;;5052526;28;20024;-63
2021/07/19 03:15:33;;;;;;;4.82;3.22;;;16.80;99.90;;;;;;5052841;28;20033;-63
2021/07/19 03:18:07;;;;;;;6.03;3.90;;;16.80;99.90;;;;;;5052532;28;20033;-64
2021/07/19 03:20:36;;;;;;;4.63;3.55;;;16.80;99.90;;;;;;5053289;28;20032;-63
2021/07/19 03:23:06;;;;;;;5.32;3.90;;;16.80;99.90;;;;;;5052308;28;20047;-64
2021/07/19 03:25:32;;;;;;;;;;;16.80;99.90;;;;;;5053399;28;20025;-63
2021/07/19 03:27:59;;;;;;;4.60;3.05;;;16.80;99.90;;;;;;5052499;28;19916;-64
2021/07/19 03:30:25;;;;;;;4.30;3.38;;;16.80;99.90;;;;;;5053339;28;20025;-63
2021/07/19 03:32:51;;;;;;;4.20;3.78;;;16.80;99.90;;;;;;5052867;28;20025;-63
2021/07/19 03:35:26;;;;;;;7.72;4.05;;;16.80;99.90;;;;;;5051938;28;20021;-63
2021/07/19 03:37:53;;;;;;;4.05;3.58;;;16.80;99.90;;;;;;5052663;28;20479;-63
2021/07/19 03:40:20;;;;;;;6.93;3.65;;;16.80;99.90;;;;;;5052353;28;20031;-63
2021/07/19 03:42:48;;;;;;;5.63;4.10;;;16.80;99.90;;;;;;5052839;28;20021;-64
2021/07/19 03:45:15;;;;;;;5.75;3.70;;;16.70;99.90;;;;;;5052142;28;20112;-63
2021/07/19 03:47:42;;;;;;;4.40;3.67;;;16.70;99.90;;;;;;5052421;28;20075;-63
2021/07/19 03:50:09;;;;;;;5.55;3.63;;;16.70;99.90;;;;;;5052040;28;20049;-63
2021/07/19 03:52:40;;;;;;;5.38;3.00;;;16.70;99.90;;;;;;5051557;28;20029;-63
2021/07/19 03:55:07;;;;;;;6.10;3.60;;;16.70;99.90;;;;;;5052404;28;20478;-64
2021/07/19 03:57:35;;;;;;;5.90;3.65;;;16.70;99.90;;;;;;5052761;28;20064;-64
2021/07/19 04:00:01;;;;;;;4.28;3.88;;;16.70;99.90;;;;;;5050927;28;20040;-64
2021/07/19 04:02:27;;;;;;;6.38;3.85;;;16.70;99.90;;;;;;5052708;28;20029;-63
2021/07/19 04:05:02;;;;;;;4.25;3.85;;;16.70;99.90;;;;;;5052324;28;20032;-63
2021/07/19 04:07:29;;;;;;;3.85;3.35;;;16.70;99.90;;;;;;5052636;28;20057;-63
2021/07/19 04:09:55;;;;;;;4.72;3.75;;;16.80;99.90;;;;;;5052271;28;20377;-63
2021/07/19 04:12:21;;;;;;;3.42;3.17;;;16.80;99.90;;;;;;5051896;28;20083;-63
2021/07/19 04:14:48;;;;;;;4.88;4.05;;;16.70;99.90;;;;;;5052280;28;20378;-64
2021/07/19 04:17:14;;;;;;;7.35;3.60;;;16.70;99.90;;;;;;5051365;28;20033;-63
2021/07/19 04:19:43;;;;;;;5.10;3.30;;;16.80;99.90;;;;;;5050280;28;20035;-63
2021/07/19 04:22:11;;;;;;;3.72;3.42;;;16.80;99.90;;;;;;5049630;28;20043;-63
2021/07/19 04:24:36;;;;;;;3.92;3.60;;;16.80;99.90;;;;;;5050933;28;20032;-63
2021/07/19 04:27:03;;;;;;;5.75;3.58;;;16.80;99.90;;;;;;5049592;28;20025;-64
2021/07/19 04:29:28;;;;;;;3.65;3.35;;;16.80;99.90;;;;;;5050543;28;20470;-63
2021/07/19 04:31:59;;;;;;;5.97;3.65;;;16.90;99.90;;;;;;5051091;28;20032;-63
2021/07/19 04:34:29;;;;;;;4.30;3.47;;;16.90;99.90;;;;;;5050216;28;20028;-63
2021/07/19 04:37:03;;;;;;;5.10;3.65;;;17.00;99.90;;;;;;5048362;28;20063;-63
2021/07/19 04:39:29;;;;;;;5.80;3.65;;;17.10;99.90;;;;;;5049991;28;20037;-63
2021/07/19 04:41:56;;;;;;;6.45;3.70;;;17.20;99.90;;;;;;5050345;28;20478;-63
2021/07/19 04:44:22;;;;;;;4.43;3.83;;;17.20;99.90;;;;;;5050015;28;20037;-63
2021/07/19 04:46:50;;;;;;;5.18;3.58;;;17.30;99.90;;;;;;5050642;28;20492;-63
2021/07/19 04:49:19;;;;;;;6.30;3.65;;;17.40;99.90;;;;;;5047287;28;20111;-65
2021/07/19 04:51:47;;;;;;;5.50;3.70;;;17.50;99.90;;;;;;5050760;28;20087;-63
2021/07/19 04:54:18;;;;;;;6.22;3.88;;;17.60;99.90;;;;;;5049261;28;20056;-63
2021/07/19 04:56:46;;;;;;;5.22;3.95;;;17.70;99.90;;;;;;5051566;28;20410;-63
2021/07/19 04:59:14;;;;;;;5.00;3.60;;;17.70;99.90;;;;;;5051083;28;20470;-63
2021/07/19 05:01:40;;;;;;;3.30;3.00;;;17.80;99.90;;;;;;5051542;28;20083;-63
2021/07/19 05:04:06;;;;;;;4.78;3.97;;;17.90;99.90;;;;;;5050360;28;20040;-63
2021/07/19 05:06:34;;;;;;;7.40;3.78;;;18.00;99.90;;;;;;5051800;28;20037;-63
2021/07/19 05:09:02;;;;;;;5.05;3.40;;;18.20;99.90;;;;;;5050701;28;20025;-64
2021/07/19 05:11:28;;;;;;;4.13;3.75;;;18.20;99.90;;;;;;5051384;28;20029;-63
2021/07/19 05:13:56;;;;;;;6.63;4.55;;;18.40;99.90;;;;;;5051077;28;20067;-63
2021/07/19 05:16:22;;;;;;;5.13;3.83;;;18.60;99.90;;;;;;5050114;28;20064;-63
2021/07/19 05:18:49;;;;;;;7.38;4.65;;;18.80;99.90;;;;;;5051359;28;20032;-64
2021/07/19 05:21:14;;;;;;;7.80;4.07;;;18.90;99.90;;;;;;5050586;28;20029;-63
2021/07/19 05:23:44;;;;;;;6.07;3.97;;;18.90;99.90;;;;;;5050338;28;20444;-64
2021/07/19 05:26:13;;;;;;;6.68;4.25;;;18.90;99.90;;;;;;5047323;28;20033;-64
2021/07/19 05:28:39;;;;;;;8.40;4.28;;;18.90;99.90;;;;;;5050036;28;20075;-64
2021/07/19 05:31:04;;;;;;;5.45;4.03;;;19.00;99.90;;;;;;5048964;28;20079;-64
2021/07/19 05:33:30;;;;;;;5.45;3.83;;;19.10;99.90;;;;;;5050441;28;20020;-64
2021/07/19 05:35:55;;;;;;;6.82;3.83;;;19.10;99.90;;;;;;5050827;28;20037;-72
2021/07/19 05:38:24;;;;;;;6.05;3.60;;;19.20;99.90;;;;;;5048885;28;20103;-71
2021/07/19 05:40:50;;;;;;;4.70;3.95;;;19.20;99.90;;;;;;5051116;28;20052;-71
2021/07/19 05:43:17;;;;;;;7.25;4.13;;;19.30;99.90;;;;;;5049880;28;20029;-71
2021/07/19 05:45:44;;;;;;;4.10;3.70;;;19.30;99.90;;;;;;5050770;28;20029;-71
2021/07/19 05:48:10;;;;;;;11.82;4.63;;;19.40;99.90;;;;;;5049827;28;20044;-71
2021/07/19 05:50:36;;;;;;;5.50;4.05;;;19.50;99.90;;;;;;5050199;28;20103;-71
2021/07/19 05:53:02;;;;;;;4.10;3.40;;;19.50;99.90;;;;;;5049373;28;20439;-72
2021/07/19 05:55:29;;;;;;;6.00;3.65;;;19.50;99.90;;;;;;5050519;28;20111;-69
2021/07/19 05:57:59;;;;;;;5.40;3.70;;;19.60;99.90;;;;;;5050818;28;20125;-71
2021/07/19 06:00:25;;;;;;;;;;;19.60;99.90;;;;;;5049568;28;20386;-66
2021/07/19 06:02:51;;;;;;;8.02;3.75;;;19.60;99.90;;;;;;5051205;28;19911;-70
2021/07/19 06:05:17;;;;;;;4.30;3.63;;;19.60;99.90;;;;;;5050363;28;20025;-67
2021/07/19 06:07:45;;;;;;;4.97;3.80;;;19.60;99.90;;;;;;5051327;28;20033;-67
2021/07/19 06:10:12;;;;;;;6.32;4.05;;;19.60;99.90;;;;;;5048578;28;20492;-71
2021/07/19 06:12:39;;;;;;;4.85;3.78;;;19.70;99.90;;;;;;5050805;28;20021;-68
2021/07/19 06:15:06;;;;;;;5.90;4.03;;;19.90;99.90;;;;;;5049789;28;20484;-69
2021/07/19 06:17:38;;;;;;;7.35;4.30;;;19.90;99.90;;;;;;5043737;28;20733;-67
2021/07/19 06:20:29;;;;;;;6.53;4.00;;;20.00;99.90;;;;;;5048040;28;20374;-78
2021/07/19 06:23:00;;;;;;;6.07;4.72;;;20.10;99.90;;;;;;5045054;28;20031;-67
2021/07/19 06:25:27;;;;;;;9.70;4.78;;;20.20;99.90;;;;;;5049736;28;20028;-67
2021/07/19 06:27:53;;;;;;;10.93;5.15;;;20.30;99.90;;;;;;5050089;28;20116;-68
2021/07/19 06:30:19;;;;;;;6.38;4.47;;;20.40;99.90;;;;;;5049052;28;20538;-67
2021/07/19 06:32:45;;;;;;;6.53;4.40;;;20.40;99.90;;;;;;5043007;28;20112;-67
2021/07/19 06:35:10;;;;;;;6.68;4.50;;;20.50;99.90;;;;;;5047820;28;20025;-65
2021/07/19 06:37:36;;;;;;;8.02;5.15;;;20.50;99.90;;;;;;5051246;28;20037;-64
2021/07/19 06:40:04;;;;;;;8.60;4.68;;;20.60;99.90;;;;;;5050165;28;20167;-74
2021/07/19 06:42:29;;;;;;;7.90;6.38;;;20.70;99.90;;;;;;5050242;28;20025;-65
2021/07/19 06:44:57;;;;;;;8.65;5.45;;;20.80;99.90;;;;;;5050088;28;20041;-64
2021/07/19 06:47:27;;;;;;;8.32;5.72;;;20.90;99.90;;;;;;5049241;28;20017;-66
2021/07/19 06:49:57;;;;;;;8.13;5.28;;;21.10;99.90;;;;;;5052267;28;20393;-70
2021/07/19 06:52:22;;;;;;;5.40;4.55;;;21.20;99.90;;;;;;5052774;28;20569;-67
2021/07/19 06:54:48;;;;;;;6.68;4.68;;;21.20;99.90;;;;;;5053350;28;20036;-65
2021/07/19 06:57:14;;;;;;;6.47;4.43;;;21.30;99.90;;;;;;5053294;28;20041;-67
2021/07/19 06:59:40;;;;;;;7.35;4.38;;;21.50;99.90;;;;;;5052594;28;20040;-65
2021/07/19 07:02:06;;;;;;;6.72;4.38;;;21.50;99.90;;;;;;5051874;28;20485;-71
2021/07/19 07:04:31;;;;;;;9.48;4.95;;;21.60;99.90;;;;;;5053905;28;20033;-65
2021/07/19 07:06:58;;;;;;;5.78;4.22;;;21.70;99.60;;;;;;5053430;28;20103;-65
2021/07/19 07:09:23;;;;;;;8.10;4.13;;;21.90;98.90;;;;;;5051888;28;20028;-65
2021/07/19 07:11:49;;;;;;;8.20;4.50;;;21.90;98.50;;;;;;5053217;28;20123;-65
2021/07/19 07:14:14;;;;;;;11.52;4.45;;;22.00;97.90;;;;;;5052070;28;20052;-65
2021/07/19 07:16:41;;;;;;;10.25;4.80;;;22.10;98.80;;;;;;5053026;28;20385;-70
2021/07/19 07:19:07;;;;;;;5.15;4.05;;;22.20;97.20;;;;;;5049915;28;20158;-72
2021/07/19 07:21:32;;;;;;;4.20;3.38;;;22.20;96.80;;;;;;5052984;28;20401;-65
2021/07/19 07:23:59;;;;;;;4.72;3.70;;;22.30;97.00;;;;;;5052049;28;20068;-68
2021/07/19 07:26:26;;;;;;;8.98;4.00;;;22.30;96.20;;;;;;5052051;28;20016;-65
2021/07/19 07:28:53;;;;;;;8.38;4.60;;;22.30;96.30;;;;;;5053438;28;20083;-65
2021/07/19 07:31:19;;;;;;;4.63;3.15;;;22.50;95.50;;;;;;5052449;28;20036;-66
2021/07/19 07:33:44;;;;;;;11.20;3.88;;;22.60;95.50;;;;;;5052438;28;20074;-66
2021/07/19 07:36:10;;;;;;;6.25;3.67;;;22.60;95.40;;;;;;5051842;28;20033;-66
2021/07/19 07:38:36;;;;;;;9.13;3.95;;;22.70;95.20;;;;;;5052408;28;20478;-65
2021/07/19 07:41:02;;;;;;;5.22;3.65;;;22.80;94.70;;;;;;5052795;28;20037;-66
2021/07/19 07:43:28;;;;;;;5.00;3.45;;;22.90;94.10;;;;;;5051856;28;20036;-65
2021/07/19 07:45:54;;;;;;;5.60;3.72;;;23.00;94.00;;;;;;5052445;28;20029;-65
2021/07/19 07:48:20;;;;;;;4.75;3.97;;;23.00;93.60;;;;;;5050523;28;20045;-66
2021/07/19 07:50:45;;;;;;;5.13;4.28;;;23.10;93.80;;;;;;5052082;28;20031;-67
2021/07/19 07:53:11;;;;;;;4.63;3.50;;;23.20;92.50;;;;;;5051920;28;20044;-66
2021/07/19 07:55:37;;;;;;;7.18;4.20;;;23.30;92.50;;;;;;5052199;28;20053;-66
2021/07/19 07:58:07;;;;;;;5.43;3.75;;;23.40;92.00;;;;;;5052925;28;20040;-66
2021/07/19 08:00:33;;;;;;;7.90;3.60;;;23.40;91.90;;;;;;5051063;28;20029;-66
2021/07/19 08:02:58;;;;;;;6.13;3.97;;;23.50;91.40;;;;;;5052046;28;20522;-67
2021/07/19 08:05:24;;;;;;;4.03;3.63;;;23.50;91.30;;;;;;5051554;28;20102;-66
2021/07/19 08:07:50;;;;;;;5.38;3.55;;;23.60;91.20;;;;;;5052654;28;20021;-66
2021/07/19 08:10:16;;;;;;;4.53;3.83;;;23.70;91.90;;;;;;5050967;28;20044;-70
2021/07/19 08:12:44;;;;;;;7.85;3.75;;;23.80;91.30;;;;;;5051873;28;20541;-66
2021/07/19 08:15:11;;;;;;;8.55;3.45;;;23.90;90.60;;;;;;5051182;28;20029;-67
2021/07/19 08:17:37;;;;;;;5.43;3.30;;;23.90;90.20;;;;;;5052050;28;20016;-66
2021/07/19 08:20:05;;;;;;;4.28;3.33;;;24.00;89.50;;;;;;5051827;28;20033;-66
2021/07/19 08:22:31;;;;;;;4.93;3.50;;;24.10;90.10;;;;;;5051435;28;20025;-67
2021/07/19 08:24:58;;;;;;;6.45;3.53;;;24.10;90.30;;;;;;5051495;28;20055;-66
2021/07/19 08:27:24;;;;;;;5.05;3.33;;;24.20;89.90;;;;;;5051484;28;20079;-65
2021/07/19 08:29:50;;;;;;;6.13;3.78;;;24.20;89.70;;;;;;5051826;28;20082;-63
2021/07/19 08:32:17;;;;;;;4.90;3.80;;;24.20;90.10;;;;;;5051207;28;20034;-64
2021/07/19 08:34:45;;;;;;;6.28;4.40;;;24.30;89.40;;;;;;5051619;28;20032;-64
2021/07/19 08:37:12;;;;;;;4.53;3.67;;;24.40;88.80;;;;;;5048686;28;20040;-64
2021/07/19 08:39:39;;;;;;;5.45;4.10;;;24.40;87.60;;;;;;5046692;28;20037;-64
2021/07/19 08:42:08;;;;;;;7.32;4.18;;;24.40;87.00;;;;;;5050581;28;20033;-64
2021/07/19 08:44:34;;;;;;;6.95;4.47;;;24.40;86.80;;;;;;5051664;28;20051;-64
2021/07/19 08:47:00;;;;;;;3.92;3.10;;;24.40;87.00;;;;;;5050827;28;20593;-64
2021/07/19 08:49:25;;;;;;;4.57;3.90;;;24.40;87.50;;;;;;5050649;28;20036;-64
2021/07/19 08:51:51;;;;;;;4.70;3.63;;;24.50;86.60;;;;;;5051022;28;20462;-64
2021/07/19 08:54:17;;;;;;;7.05;4.10;;;24.60;87.00;;;;;;5050259;28;20114;-64
2021/07/19 08:56:43;;;;;;;7.90;3.92;;;24.70;85.80;;;;;;5050935;28;20183;-64
2021/07/19 08:59:16;;;;;;;5.07;4.38;;;24.80;84.70;;;;;;5051036;28;20025;-64
2021/07/19 09:01:45;;;;;;;8.23;4.13;;;24.90;84.40;;;;;;5051454;28;20410;-64
2021/07/19 09:04:17;;;;;;;8.45;3.75;;;25.00;84.60;;;;;;5050546;28;20061;-64
2021/07/19 09:06:44;;;;;;;6.25;4.00;;;25.10;83.70;;;;;;5051315;28;20032;-64
2021/07/19 09:09:10;;;;;;;4.95;3.50;;;25.20;83.20;;;;;;5051278;28;20087;-64
2021/07/19 09:11:46;;;;;;;8.90;5.35;;;25.30;82.30;;;;;;5051292;28;20474;-64
2021/07/19 09:14:12;;;;;;;5.80;3.97;;;25.50;79.80;;;;;;5050594;28;20017;-64
2021/07/19 09:16:40;;;;;;;10.93;3.85;;;25.50;80.00;;;;;;5051152;28;20017;-64
2021/07/19 09:19:11;;;;;;;6.35;3.70;;;25.50;79.00;;;;;;5050478;28;20037;-64
2021/07/19 09:21:38;;;;;;;10.82;3.90;;;25.70;77.80;;;;;;5051240;28;20055;-64
2021/07/19 09:24:06;;;;;;;5.55;3.85;;;25.90;77.00;;;;;;5042236;28;20033;-64
2021/07/19 09:26:34;;;;;;;6.80;2.97;;;26.00;78.00;;;;;;5049928;28;20040;-64
2021/07/19 09:29:00;;;;;;;6.07;3.97;;;26.10;77.70;;;;;;5050291;28;20466;-64
2021/07/19 09:31:36;;;;;;;5.57;3.58;;;26.20;76.10;;;;;;5050183;28;20033;-64
2021/07/19 09:34:10;;;;;;;9.55;3.92;;;26.20;76.40;;;;;;5050958;28;20055;-64
2021/07/19 09:36:36;;;;;;;11.98;3.50;;;26.10;74.60;;;;;;5050558;28;20108;-64
2021/07/19 09:39:09;;;;;;;11.15;4.25;;;26.30;75.80;;;;;;5050159;28;20442;-64
2021/07/19 09:41:36;;;;;;;7.03;3.75;;;26.50;73.40;;;;;;5050293;28;20219;-64
2021/07/19 09:44:08;;;;;;;5.13;3.28;;;26.50;73.60;;;;;;5050630;28;20040;-64
2021/07/19 09:46:34;;;;;;;5.25;3.58;;;26.60;73.60;;;;;;5049831;28;20032;-64
2021/07/19 09:49:01;;;;;;;7.03;3.85;;;26.70;74.00;;;;;;5050036;28;20433;-64
2021/07/19 09:51:32;;;;;;;7.40;4.00;;;26.90;71.90;;;;;;5049863;28;20107;-64
2021/07/19 09:54:11;;;;;;;7.22;4.00;;;26.90;72.00;;;;;;5050564;28;20040;-65
2021/07/19 09:56:38;;;;;;;6.28;3.50;;;26.80;72.60;;;;;;5050288;28;20049;-64
2021/07/19 09:59:09;;;;;;;6.35;4.20;;;26.70;72.90;;;;;;5050644;28;20036;-64
2021/07/19 10:01:42;;;;;;;5.65;4.15;;;26.50;73.60;;;;;;5050190;28;20032;-64
2021/07/19 10:04:10;;;;;;;7.97;3.92;;;26.30;74.00;;;;;;5050172;28;20477;-64
2021/07/19 10:06:38;;;;;;;7.78;4.00;;;26.30;74.20;;;;;;5050156;28;20561;-64
2021/07/19 10:09:07;;;;;;;4.65;3.88;;;26.20;73.90;;;;;;5049212;28;20040;-64
2021/07/19 10:11:36;;;;;;;4.97;3.05;;;26.00;73.70;;;;;;5049787;28;20060;-64
2021/07/19 10:14:03;;;;;;;5.95;4.07;;;25.90;74.50;;;;;;5050097;28;20108;-63
2021/07/19 10:16:31;;;;;;;4.57;3.72;;;25.80;74.80;;;;;;5050120;28;20083;-64
2021/07/19 10:18:59;;;;;;;9.95;4.10;;;25.90;74.40;;;;;;5050230;28;20040;-64
2021/07/19 10:21:29;;;;;;;6.43;3.47;;;26.10;74.70;;;;;;5049499;28;20044;-64
2021/07/19 10:24:00;;;;;;;5.45;4.07;;;26.40;73.90;;;;;;5051137;28;20025;-64
2021/07/19 10:26:27;;;;;;;6.35;3.95;;;26.80;70.30;;;;;;5052952;28;20478;-64
2021/07/19 10:28:53;;;;;;;4.82;3.35;;;26.80;70.00;;;;;;5054150;28;20424;-64
2021/07/19 10:31:20;;;;;;;8.52;4.15;;;26.60;71.50;;;;;;5053157;28;20025;-64
2021/07/19 10:33:48;;;;;;;6.85;3.92;;;26.40;72.20;;;;;;5054002;28;20421;-64
2021/07/19 10:36:19;;;;;;;7.18;3.85;;;26.40;70.80;;;;;;5053625;28;20041;-64
2021/07/19 10:38:47;;;;;;;4.60;3.03;;;26.40;70.20;;;;;;5047268;28;20025;-64
2021/07/19 10:41:12;;;;;;;4.18;3.28;;;26.70;68.10;;;;;;5042182;28;20371;-64
2021/07/19 10:43:38;;;;;;;3.78;3.30;;;26.90;68.10;;;;;;5053086;28;20032;-64
2021/07/19 10:46:11;;;;;;;8.57;3.42;;;27.10;66.60;;;;;;5053299;28;20053;-64
2021/07/19 10:48:37;;;;;;;7.90;3.60;;;27.30;67.40;;;;;;5053323;28;20068;-64
2021/07/19 10:51:16;;;;;;;5.70;3.20;;;27.40;66.00;;;;;;5053390;28;20492;-64
2021/07/19 10:53:42;;;;;;;4.40;2.72;;;27.40;65.80;;;;;;5053993;28;20076;-64
2021/07/19 10:56:09;;;;;;;5.32;3.08;;;27.40;65.70;;;;;;5053497;28;20440;-64
2021/07/19 10:58:49;;;;;;;4.60;3.13;;;27.50;64.60;;;;;;5052420;28;20175;-64
2021/07/19 11:01:20;;;;;;;8.00;3.03;;;27.50;65.20;;;;;;5053419;28;20029;-64
2021/07/19 11:03:45;;;;;;;3.45;2.63;;;27.60;65.30;;;;;;5053673;28;20111;-64
2021/07/19 11:06:11;;;;;;;3.40;2.88;;;27.80;64.20;;;;;;5053936;28;20025;-64
2021/07/19 11:08:49;;;;;;;4.30;2.78;;;28.10;62.20;;;;;;5053155;28;20043;-64
2021/07/19 11:11:33;;;;;;;5.93;3.28;;;28.10;63.10;;;;;;5052915;28;20537;-64
2021/07/19 11:14:04;;;;;;;4.10;3.00;;;28.00;62.50;;;;;;5053403;28;20078;-64
2021/07/19 11:16:47;;;;;;;4.05;2.70;;;27.90;61.50;;;;;;5052200;28;20036;-64
2021/07/19 11:19:30;;;;;;;10.18;2.83;;;27.50;62.10;;;;;;5053089;28;20036;-64
2021/07/19 11:22:09;;;;;;;5.68;2.80;;;27.50;63.70;;;;;;5054025;28;20047;-64
2021/07/19 11:24:42;;;;;;;3.50;2.83;;;27.70;62.00;;;;;;5052865;28;20021;-64
2021/07/19 11:27:08;;;;;;;2.85;2.53;;;27.90;62.20;;;;;;5053145;28;20033;-64
2021/07/19 11:29:37;;;;;;;3.95;2.95;;;28.00;62.70;;;;;;5051297;28;20108;-64
2021/07/19 11:32:10;;;;;;;3.90;2.63;;;28.20;61.90;;;;;;5053025;28;20025;-64
2021/07/19 11:34:35;;;;;;;4.00;2.65;;;28.40;59.50;;;;;;5052024;28;20028;-64
2021/07/19 11:37:02;;;;;;;8.68;2.92;;;28.20;60.10;;;;;;5051611;28;20056;-64
2021/07/19 11:39:28;;;;;;;6.00;3.08;;;27.90;59.40;;;;;;5048091;28;20029;-64
2021/07/19 11:42:03;;;;;;;4.22;2.85;;;27.60;59.70;;;;;;5053115;28;20033;-64
2021/07/19 11:44:32;;;;;;;7.90;3.25;;;27.40;61.70;;;;;;5051558;28;20487;-64
2021/07/19 11:46:59;;;;;;;7.10;3.13;;;27.60;61.00;;;;;;5052399;28;20483;-63
2021/07/19 11:49:25;;;;;;;4.15;2.90;;;27.80;61.40;;;;;;5051732;28;20033;-63
2021/07/19 11:51:52;;;;;;;5.60;2.40;;;28.00;60.00;;;;;;5052395;28;20036;-63
2021/07/19 11:54:18;;;;;;;4.50;2.42;;;28.20;60.00;;;;;;5045403;28;20025;-64
2021/07/19 11:56:52;;;;;;;3.20;2.50;;;28.40;57.90;;;;;;5052401;28;20055;-63
2021/07/19 11:59:26;;;;;;;3.10;2.63;;;28.70;57.90;;;;;;5049422;28;20028;-64
2021/07/19 12:02:02;;;;;;;7.25;2.58;;;28.90;57.60;;;;;;5052847;28;20037;-63
2021/07/19 12:04:41;;;;;;;4.30;2.78;;;29.00;57.30;;;;;;5050933;28;20033;-63
2021/07/19 12:07:08;;;;;;;6.25;2.50;;;28.90;56.90;;;;;;5051231;28;20029;-63
2021/07/19 12:09:34;;;;;;;4.45;2.30;;;28.70;58.50;;;;;;5051101;28;20044;-63
2021/07/19 12:12:02;;;;;;;5.07;2.67;;;28.40;57.80;;;;;;5052172;28;20029;-63
2021/07/19 12:14:28;;;;;;;6.05;2.40;;;28.30;58.10;;;;;;5051485;28;20039;-63
2021/07/19 12:16:54;;;;;;;5.63;2.60;;;28.40;57.80;;;;;;5051804;28;20021;-63
2021/07/19 12:19:21;;;;;;;5.97;2.60;;;28.60;56.70;;;;;;5050699;28;20032;-63
2021/07/19 12:21:53;;;;;;;2.70;2.25;;;28.70;57.10;;;;;;5052442;28;20410;-63
2021/07/19 12:24:24;;;;;;;2.50;2.30;;;28.90;56.20;;;;;;5050378;28;20471;-64
2021/07/19 12:26:55;;;;;;;7.38;1.95;;;29.20;55.50;;;;;;5051921;28;20115;-63
2021/07/19 12:29:33;;;;;;;1.92;1.75;;;29.30;53.20;;;;;;5051112;28;20029;-64
2021/07/19 12:32:01;;;;;;;3.53;1.75;;;29.30;53.60;;;;;;5051867;28;20024;-64
2021/07/19 12:34:33;;;;;;;2.00;1.63;;;29.40;51.20;;;;;;5051037;28;20478;-64
2021/07/19 12:37:04;;;;;;;3.38;1.60;;;29.30;52.30;;;;;;5051513;28;20389;-64
2021/07/19 12:39:33;;;;;;;3.55;1.80;;;29.50;52.10;;;;;;5050176;28;20116;-64
2021/07/19 12:42:02;;;;;;;3.55;1.35;;;29.80;51.50;;;;;;5051431;28;20429;-64
2021/07/19 12:44:31;;;;;;;2.37;1.70;;;30.10;50.70;;;;;;5050890;28;20056;-64
2021/07/19 12:46:57;;;;;;;2.17;1.73;;;30.40;50.80;;;;;;5051057;28;20029;-64
2021/07/19 12:49:37;;;;;;;2.80;1.90;;;30.60;48.90;;;;;;5050978;28;20037;-65
2021/07/19 12:52:05;;;;;;;;;;;30.60;49.50;;;;;;5051893;28;20024;-64